createdAt,value
2019-05-21T00:01:15.578Z,27.93
2019-05-21T00:03:45.254Z,27.22
2019-05-21T00:06:15.456Z,30.68
2019-05-21T00:08:45.075Z,30.95
2019-05-21T00:11:14.694Z,32.73
2019-05-21T00:13:45.328Z,31.77
2019-05-21T00:16:15.240Z,33.20
2019-05-21T00:18:45.115Z,31.82
2019-05-21T00:21:15.429Z,31.12
2019-05-21T00:23:45.789Z,32.60
2019-05-21T00:26:15.721Z,31.95
2019-05-21T00:29:21.074Z,31.30
2019-05-21T00:32:26.060Z,33.33
2019-05-21T00:35:45.205Z,31.10
2019-05-21T00:38:52.096Z,31.82
2019-05-21T00:41:58.819Z,32.13
2019-05-21T00:44:29.764Z,31.30
2019-05-21T00:47:00.044Z,29.82
2019-05-21T00:49:29.648Z,31.65
2019-05-21T00:52:08.035Z,29.45
2019-05-21T00:54:31.491Z,31.10
2019-05-21T00:57:01.473Z,30.17
2019-05-21T00:59:31.669Z,30.77
2019-05-21T01:02:01.929Z,30.32
2019-05-21T01:04:32.155Z,31.45
2019-05-21T01:07:01.514Z,30.35
2019-05-21T01:09:30.803Z,29.63
2019-05-21T01:12:02.486Z,30.23
2019-05-21T01:14:32.856Z,29.90
2019-05-21T01:17:03.113Z,28.10
2019-05-21T01:19:33.149Z,29.12
2019-05-21T01:22:03.096Z,25.97
2019-05-21T01:24:33.346Z,26.77
2019-05-21T01:27:03.553Z,26.82
2019-05-21T01:29:33.529Z,26.42
2019-05-21T01:32:03.805Z,27.05
2019-05-21T01:34:34.129Z,28.12
2019-05-21T01:37:04.544Z,27.70
2019-05-21T01:39:34.512Z,25.92
2019-05-21T01:42:04.446Z,26.27
2019-05-21T01:44:35.154Z,24.82
2019-05-21T01:47:05.420Z,25.05
2019-05-21T01:49:35.662Z,26.05
2019-05-21T01:52:05.219Z,25.32
2019-05-21T01:54:34.835Z,23.77
2019-05-21T01:57:04.569Z,23.32
2019-05-21T01:59:34.544Z,23.77
2019-05-21T02:02:04.472Z,24.77
2019-05-21T02:04:34.099Z,24.45
2019-05-21T02:07:03.975Z,21.55
2019-05-21T02:09:36.012Z,22.02
2019-05-21T02:12:06.527Z,21.30
2019-05-21T02:14:36.822Z,21.17
2019-05-21T02:17:06.544Z,19.17
2019-05-21T02:19:36.486Z,20.30
2019-05-21T02:22:06.074Z,20.62
2019-05-21T02:24:35.658Z,19.67
2019-05-21T02:27:05.271Z,19.70
2019-05-21T02:29:35.139Z,19.15
2019-05-21T02:32:04.784Z,18.65
2019-05-21T02:34:34.981Z,18.57
2019-05-21T02:37:06.359Z,18.90
2019-05-21T02:39:37.188Z,18.05
2019-05-21T02:42:06.842Z,18.77
2019-05-21T02:44:38.742Z,18.57
2019-05-21T02:47:09.036Z,17.50
2019-05-21T02:49:39.593Z,16.62
2019-05-21T02:52:10.171Z,17.80
2019-05-21T02:54:41.677Z,18.07
2019-05-21T02:57:11.389Z,17.30
2019-05-21T02:59:42.231Z,16.48
2019-05-21T03:02:18.302Z,17.80
2019-05-21T03:04:48.289Z,17.48
2019-05-21T03:07:21.100Z,16.67
2019-05-21T03:09:50.607Z,16.77
2019-05-21T03:12:20.811Z,17.00
2019-05-21T03:14:50.768Z,17.12
2019-05-21T03:17:20.955Z,15.75
2019-05-21T03:19:51.256Z,15.83
2019-05-21T03:22:20.831Z,15.30
2019-05-21T03:24:50.869Z,14.30
2019-05-21T03:27:20.500Z,16.23
2019-05-21T03:29:50.554Z,15.55
2019-05-21T03:32:21.060Z,15.95
2019-05-21T03:34:51.403Z,13.48
2019-05-21T03:37:21.270Z,13.20
2019-05-21T03:39:51.637Z,13.28
2019-05-21T03:42:21.494Z,12.40
2019-05-21T03:44:59.828Z,12.15
2019-05-21T03:47:23.957Z,12.68
2019-05-21T03:49:54.021Z,12.15
2019-05-21T03:52:23.741Z,12.03
2019-05-21T03:54:54.300Z,11.95
2019-05-21T03:57:24.253Z,11.85
2019-05-21T03:59:54.220Z,11.38
2019-05-21T04:02:24.143Z,11.73
2019-05-21T04:04:54.464Z,11.85
2019-05-21T04:07:24.773Z,11.33
2019-05-21T04:09:54.979Z,11.25
2019-05-21T04:12:24.975Z,11.63
2019-05-21T04:14:58.868Z,10.75
2019-05-21T04:17:59.698Z,10.95
2019-05-21T04:20:29.269Z,10.75
2019-05-21T04:22:59.919Z,11.18
2019-05-21T04:25:29.928Z,10.88
2019-05-21T04:27:59.936Z,10.93
2019-05-21T04:30:30.499Z,10.85
2019-05-21T04:33:00.065Z,9.30
2019-05-21T04:35:30.335Z,10.08
2019-05-21T04:37:59.924Z,9.68
2019-05-21T04:40:29.608Z,10.28
2019-05-21T04:43:02.229Z,9.08
2019-05-21T04:45:31.251Z,9.60
2019-05-21T04:48:01.184Z,8.80
2019-05-21T04:50:31.129Z,9.43
2019-05-21T04:53:01.031Z,8.68
2019-05-21T04:55:31.334Z,8.45
2019-05-21T04:58:00.997Z,8.48
2019-05-21T05:00:31.298Z,8.80
2019-05-21T05:03:01.486Z,8.35
2019-05-21T05:05:31.926Z,9.28
2019-05-21T05:08:02.593Z,8.93
2019-05-21T05:10:32.909Z,8.83
2019-05-21T05:13:03.201Z,9.50
2019-05-21T05:15:32.854Z,9.08
2019-05-21T05:18:02.804Z,10.18
2019-05-21T05:20:32.727Z,9.98
2019-05-21T05:23:02.624Z,9.95
2019-05-21T05:25:33.408Z,9.48
2019-05-21T05:28:02.726Z,8.55
2019-05-21T05:30:32.753Z,8.48
2019-05-21T05:33:02.763Z,8.10
2019-05-21T05:35:33.294Z,7.65
2019-05-21T05:38:03.853Z,7.95
2019-05-21T05:40:34.105Z,7.90
2019-05-21T05:43:04.385Z,7.75
2019-05-21T05:45:34.687Z,7.70
2019-05-21T05:48:04.734Z,7.50
2019-05-21T05:50:37.860Z,7.28
2019-05-21T05:53:07.506Z,7.60
2019-05-21T05:55:37.715Z,6.95
2019-05-21T05:58:07.617Z,6.33
2019-05-21T06:00:38.158Z,6.95
2019-05-21T06:03:08.455Z,6.35
2019-05-21T06:05:38.487Z,6.08
2019-05-21T06:08:08.825Z,6.05
2019-05-21T06:10:40.082Z,6.33
2019-05-21T06:13:10.568Z,5.85
2019-05-21T06:15:41.299Z,6.60
2019-05-21T06:18:11.618Z,8.53
2019-05-21T06:20:41.823Z,6.03
2019-05-21T06:23:11.764Z,5.92
2019-05-21T06:25:41.752Z,7.95
2019-05-21T06:28:12.013Z,6.33
2019-05-21T06:30:41.628Z,6.72
2019-05-21T06:33:11.581Z,7.53
2019-05-21T06:35:42.173Z,5.58
2019-05-21T06:38:17.596Z,7.90
2019-05-21T06:40:44.090Z,4.87
2019-05-21T06:43:13.452Z,6.17
2019-05-21T06:45:43.685Z,5.95
2019-05-21T06:48:14.230Z,9.50
2019-05-21T06:50:44.583Z,7.95
2019-05-21T06:53:14.221Z,6.75
2019-05-21T06:55:44.207Z,5.40
2019-05-21T06:58:14.441Z,6.53
2019-05-21T07:00:44.743Z,7.35
2019-05-21T07:03:14.352Z,7.58
2019-05-21T07:05:57.543Z,7.72
2019-05-21T07:08:15.864Z,4.90
2019-05-21T07:10:45.754Z,8.28
2019-05-21T07:13:15.646Z,8.70
2019-05-21T07:15:45.575Z,11.35
2019-05-21T07:18:15.250Z,5.67
2019-05-21T07:20:45.197Z,5.22
2019-05-21T07:23:14.846Z,5.30
2019-05-21T07:25:45.084Z,4.90
2019-05-21T07:28:15.617Z,6.53
2019-05-21T07:30:45.598Z,6.85
2019-05-21T07:33:16.051Z,4.72
2019-05-21T07:35:46.122Z,3.42
2019-05-21T07:38:16.349Z,6.25
2019-05-21T07:40:45.633Z,8.60
2019-05-21T07:43:15.522Z,8.93
2019-05-21T07:45:45.848Z,7.40
2019-05-21T07:48:15.744Z,5.17
2019-05-21T07:50:45.055Z,4.35
2019-05-21T07:53:15.351Z,7.00
2019-05-21T07:55:45.599Z,6.60
2019-05-21T07:58:15.772Z,3.95
2019-05-21T08:00:45.982Z,4.78
2019-05-21T08:03:15.523Z,3.75
2019-05-21T08:05:45.728Z,3.10
2019-05-21T08:08:40.552Z,3.10
2019-05-21T08:11:11.171Z,3.10
2019-05-21T08:13:40.891Z,3.52
2019-05-21T08:16:11.097Z,2.55
2019-05-21T08:18:40.979Z,2.80
2019-05-21T08:21:11.207Z,2.75
2019-05-21T08:23:40.860Z,2.30
2019-05-21T08:26:10.836Z,3.00
2019-05-21T08:28:40.473Z,2.33
2019-05-21T08:31:10.431Z,2.00
2019-05-21T08:33:40.963Z,1.90
2019-05-21T08:36:10.984Z,2.30
2019-05-21T08:38:41.276Z,2.00
2019-05-21T08:41:11.555Z,1.77
2019-05-21T08:43:42.152Z,1.80
2019-05-21T08:46:11.778Z,1.80
2019-05-21T08:48:41.731Z,1.92
2019-05-21T08:51:12.022Z,1.82
2019-05-21T08:53:41.700Z,1.85
2019-05-21T08:56:11.110Z,2.52
2019-05-21T08:58:40.677Z,1.60
2019-05-21T09:01:10.862Z,2.33
2019-05-21T09:03:41.580Z,1.75
2019-05-21T09:06:11.520Z,1.70
2019-05-21T09:08:41.802Z,2.72
2019-05-21T09:11:12.590Z,2.05
2019-05-21T09:13:42.472Z,2.60
2019-05-21T09:16:13.072Z,2.15
2019-05-21T09:18:42.692Z,2.40
2019-05-21T09:21:12.548Z,2.30
2019-05-21T09:23:42.119Z,2.40
2019-05-21T09:26:12.005Z,2.35
2019-05-21T09:28:42.541Z,2.05
2019-05-21T09:31:12.167Z,2.60
2019-05-21T09:33:42.432Z,1.87
2019-05-21T09:36:12.362Z,1.70
2019-05-21T09:38:42.344Z,2.15
2019-05-21T09:41:12.258Z,1.77
2019-05-21T09:43:42.340Z,1.80
2019-05-21T09:46:12.340Z,2.47
2019-05-21T09:48:42.019Z,2.40
2019-05-21T09:51:19.744Z,2.30
2019-05-21T09:53:44.313Z,1.50
2019-05-21T09:56:31.852Z,1.67
2019-05-21T09:59:05.585Z,2.27
2019-05-21T10:01:41.672Z,2.05
2019-05-21T10:04:12.102Z,1.72
2019-05-21T10:06:42.534Z,1.50
2019-05-21T10:09:17.368Z,1.42
2019-05-21T10:11:47.687Z,1.12
2019-05-21T10:14:17.711Z,1.65
2019-05-21T10:16:49.171Z,1.37
2019-05-21T10:19:19.119Z,1.40
2019-05-21T10:21:49.422Z,1.27
2019-05-21T10:24:19.648Z,1.37
2019-05-21T10:26:49.642Z,1.10
2019-05-21T10:29:19.268Z,1.70
2019-05-21T10:31:49.531Z,1.70
2019-05-21T10:34:19.419Z,1.32
2019-05-21T10:36:50.004Z,1.40
2019-05-21T10:39:20.201Z,1.45
2019-05-21T10:41:50.680Z,1.45
2019-05-21T10:44:21.368Z,1.25
2019-05-21T10:46:50.629Z,1.77
2019-05-21T10:49:20.646Z,1.40
2019-05-21T10:51:50.840Z,1.80
2019-05-21T10:54:21.369Z,1.50
2019-05-21T10:56:51.278Z,2.50
2019-05-21T10:59:21.677Z,1.75
2019-05-21T11:02:04.013Z,1.20
2019-05-21T11:04:52.982Z,1.77
2019-05-21T11:07:23.914Z,1.82
2019-05-21T11:09:53.929Z,1.77
2019-05-21T11:12:24.303Z,2.60
2019-05-21T11:14:54.232Z,2.60
2019-05-21T11:17:24.212Z,2.30
2019-05-21T11:19:54.098Z,2.60
2019-05-21T11:22:24.892Z,2.58
2019-05-21T11:24:55.111Z,2.33
2019-05-21T11:27:25.290Z,1.90
2019-05-21T11:29:55.659Z,2.40
2019-05-21T11:32:25.713Z,2.05
2019-05-21T11:34:55.303Z,2.55
2019-05-21T11:37:25.308Z,2.35
2019-05-21T11:39:55.626Z,4.20
2019-05-21T11:42:25.844Z,3.17
2019-05-21T11:44:55.511Z,1.60
2019-05-21T11:47:25.075Z,1.90
2019-05-21T11:49:55.354Z,1.98
2019-05-21T11:52:25.363Z,2.62
2019-05-21T11:54:57.132Z,2.60
2019-05-21T11:57:26.734Z,2.50
2019-05-21T11:59:56.407Z,2.60
2019-05-21T12:02:26.688Z,2.60
2019-05-21T12:04:56.649Z,2.85
2019-05-21T12:07:27.224Z,2.92
2019-05-21T12:09:56.971Z,3.22
2019-05-21T12:12:26.940Z,3.22
2019-05-21T12:14:57.177Z,2.77
2019-05-21T12:17:27.491Z,3.10
2019-05-21T12:19:57.768Z,2.77
2019-05-21T12:22:27.990Z,2.92
2019-05-21T12:24:57.905Z,2.47
2019-05-21T12:27:27.878Z,2.67
2019-05-21T12:29:57.514Z,3.15
2019-05-21T12:32:27.134Z,3.25
2019-05-21T12:34:56.770Z,3.30
2019-05-21T12:37:27.051Z,2.95
2019-05-21T12:39:57.756Z,3.33
2019-05-21T12:42:27.725Z,2.30
2019-05-21T12:44:58.037Z,2.75
2019-05-21T12:47:28.068Z,2.90
2019-05-21T12:49:57.998Z,3.00
2019-05-21T12:52:28.603Z,2.90
2019-05-21T12:54:59.675Z,2.85
2019-05-21T12:57:30.399Z,2.95
2019-05-21T12:59:59.953Z,6.20
2019-05-21T13:02:29.962Z,2.60
2019-05-21T13:05:00.266Z,2.65
2019-05-21T13:07:29.977Z,2.72
2019-05-21T13:10:00.238Z,2.80
2019-05-21T13:12:30.405Z,2.95
2019-05-21T13:15:00.507Z,3.10
2019-05-21T13:17:30.453Z,4.05
2019-05-21T13:20:00.441Z,7.17
2019-05-21T13:22:30.677Z,4.50
2019-05-21T13:25:01.325Z,4.53
2019-05-21T13:27:31.371Z,3.87
2019-05-21T13:30:02.085Z,4.20
2019-05-21T13:32:32.285Z,4.50
2019-05-21T13:35:03.145Z,4.15
2019-05-21T13:37:33.368Z,4.47
2019-05-21T13:40:03.979Z,4.15
2019-05-21T13:42:34.239Z,3.62
2019-05-21T13:45:04.331Z,4.22
2019-05-21T13:47:34.319Z,3.95
2019-05-21T13:50:04.940Z,3.80
2019-05-21T13:52:35.021Z,3.80
2019-05-21T13:55:05.449Z,3.60
2019-05-21T13:57:35.827Z,3.70
2019-05-21T14:00:08.142Z,3.27
2019-05-21T14:02:38.145Z,3.47
2019-05-21T14:05:08.221Z,3.30
2019-05-21T14:07:38.475Z,3.33
2019-05-21T14:10:15.181Z,4.00
2019-05-21T14:12:41.012Z,3.50
2019-05-21T14:15:11.823Z,3.62
2019-05-21T14:17:42.104Z,4.60
2019-05-21T14:20:12.935Z,5.08
2019-05-21T14:22:42.859Z,6.53
2019-05-21T14:25:12.687Z,4.33
2019-05-21T14:27:45.087Z,4.67
2019-05-21T14:30:15.312Z,3.90
2019-05-21T14:32:45.614Z,3.40
2019-05-21T14:35:15.146Z,4.08
2019-05-21T14:37:45.716Z,3.83
2019-05-21T14:40:31.284Z,4.50
2019-05-21T14:42:59.475Z,3.72
2019-05-21T14:45:21.106Z,4.00
2019-05-21T14:47:51.399Z,4.15
2019-05-21T14:50:21.744Z,4.40
2019-05-21T14:52:52.487Z,4.33
2019-05-21T14:55:23.115Z,4.28
2019-05-21T14:57:53.085Z,4.70
2019-05-21T15:00:46.821Z,3.98
2019-05-21T15:03:24.744Z,5.67
2019-05-21T15:05:47.743Z,5.00
2019-05-21T15:08:18.276Z,5.85
2019-05-21T15:10:49.614Z,5.85
2019-05-21T15:13:20.126Z,6.05
2019-05-21T15:15:50.067Z,6.12
2019-05-21T15:18:22.240Z,6.30
2019-05-21T15:21:13.836Z,6.62
2019-05-21T15:23:44.279Z,6.33
2019-05-21T15:26:14.445Z,5.47
2019-05-21T15:28:44.879Z,6.03
2019-05-21T15:31:15.187Z,6.08
2019-05-21T15:33:45.167Z,5.92
2019-05-21T15:36:14.835Z,4.92
2019-05-21T15:38:50.723Z,8.08
2019-05-21T15:41:16.458Z,7.30
2019-05-21T15:43:46.582Z,7.12
2019-05-21T15:46:16.624Z,6.60
2019-05-21T15:48:47.360Z,6.22
2019-05-21T15:51:17.325Z,7.83
2019-05-21T15:53:47.906Z,7.85
2019-05-21T15:56:18.536Z,7.50
2019-05-21T15:58:48.802Z,6.90
2019-05-21T16:01:18.700Z,7.97
2019-05-21T16:03:48.709Z,7.50
2019-05-21T16:06:19.383Z,7.87
2019-05-21T16:08:49.139Z,8.13
2019-05-21T16:11:27.963Z,9.13
2019-05-21T16:13:51.388Z,7.92
2019-05-21T16:16:21.631Z,7.90
2019-05-21T16:18:51.698Z,8.83
2019-05-21T16:21:21.371Z,7.50
2019-05-21T16:23:51.056Z,8.03
2019-05-21T16:26:23.309Z,7.70
2019-05-21T16:28:52.693Z,7.15
2019-05-21T16:31:22.956Z,8.20
2019-05-21T16:33:53.146Z,9.60
2019-05-21T16:36:23.401Z,7.30
2019-05-21T16:38:53.099Z,8.05
2019-05-21T16:41:24.785Z,8.58
2019-05-21T16:43:55.434Z,8.43
2019-05-21T16:46:25.769Z,9.83
2019-05-21T16:48:55.747Z,10.35
2019-05-21T16:51:26.012Z,8.65
2019-05-21T16:53:56.248Z,8.13
2019-05-21T16:56:26.303Z,8.70
2019-05-21T16:58:56.717Z,10.20
2019-05-21T17:01:26.726Z,8.55
2019-05-21T17:03:59.814Z,7.83
2019-05-21T17:06:28.389Z,8.68
2019-05-21T17:08:58.399Z,7.85
2019-05-21T17:11:28.736Z,8.85
2019-05-21T17:13:58.462Z,8.20
2019-05-21T17:16:28.868Z,9.00
2019-05-21T17:18:58.170Z,9.15
2019-05-21T17:21:28.487Z,8.45
2019-05-21T17:23:58.537Z,8.83
2019-05-21T17:26:28.518Z,8.00
2019-05-21T17:28:58.624Z,9.15
2019-05-21T17:31:28.939Z,8.25
2019-05-21T17:33:59.006Z,8.60
2019-05-21T17:36:29.000Z,9.15
2019-05-21T17:38:59.236Z,10.20
2019-05-21T17:41:29.224Z,10.03
2019-05-21T17:43:58.927Z,10.08
2019-05-21T17:46:29.503Z,10.23
2019-05-21T17:48:59.824Z,9.90
2019-05-21T17:51:30.132Z,12.90
2019-05-21T17:54:00.494Z,15.75
2019-05-21T17:56:30.389Z,9.08
2019-05-21T17:59:00.398Z,9.08
2019-05-21T18:01:29.667Z,9.60
2019-05-21T18:04:00.374Z,11.15
2019-05-21T18:06:30.419Z,11.85
2019-05-21T18:09:00.766Z,10.23
2019-05-21T18:11:31.074Z,10.90
2019-05-21T18:14:01.050Z,10.43
2019-05-21T18:16:31.429Z,10.60
2019-05-21T18:19:01.149Z,10.93
2019-05-21T18:21:31.554Z,11.57
2019-05-21T18:24:01.277Z,11.18
2019-05-21T18:26:31.246Z,11.35
2019-05-21T18:29:01.296Z,12.07
2019-05-21T18:31:31.614Z,10.88
2019-05-21T18:34:01.906Z,10.60
2019-05-21T18:36:32.249Z,11.48
2019-05-21T18:39:01.880Z,11.80
2019-05-21T18:41:31.858Z,11.33
2019-05-21T18:44:01.585Z,11.38
2019-05-21T18:46:31.373Z,11.60
2019-05-21T18:49:01.766Z,12.30
2019-05-21T18:51:31.782Z,12.47
2019-05-21T18:54:02.077Z,11.90
2019-05-21T18:56:32.417Z,12.23
2019-05-21T18:59:02.469Z,14.00
2019-05-21T19:01:32.532Z,13.22
2019-05-21T19:04:02.860Z,13.25
2019-05-21T19:06:32.788Z,13.05
2019-05-21T19:09:02.963Z,12.90
2019-05-21T19:11:33.032Z,12.95
2019-05-21T19:14:03.155Z,12.30
2019-05-21T19:16:33.150Z,10.98
2019-05-21T19:19:03.208Z,10.98
2019-05-21T19:21:32.972Z,8.38
2019-05-21T19:24:03.428Z,10.65
2019-05-21T19:26:33.578Z,10.32
2019-05-21T19:29:03.564Z,11.53
2019-05-21T19:31:34.325Z,11.12
2019-05-21T19:34:04.729Z,10.25
2019-05-21T19:36:34.731Z,11.33
2019-05-21T19:39:05.897Z,10.40
2019-05-21T19:41:36.295Z,11.15
2019-05-21T19:44:06.772Z,11.78
2019-05-21T19:46:37.459Z,11.55
2019-05-21T19:49:08.141Z,11.40
2019-05-21T19:51:38.489Z,12.30
2019-05-21T19:54:08.727Z,10.10
2019-05-21T19:56:39.130Z,10.18
2019-05-21T19:59:09.824Z,10.18
2019-05-21T20:01:39.719Z,10.60
2019-05-21T20:04:11.265Z,11.35
2019-05-21T20:06:41.351Z,12.55
2019-05-21T20:09:15.810Z,12.93
2019-05-21T20:11:46.143Z,14.05
2019-05-21T20:14:16.244Z,12.45
2019-05-21T20:16:47.284Z,11.10
2019-05-21T20:19:19.672Z,10.45
2019-05-21T20:21:49.928Z,11.65
2019-05-21T20:24:20.694Z,10.75
2019-05-21T20:26:50.861Z,11.65
2019-05-21T20:29:22.288Z,9.93
2019-05-21T20:31:52.581Z,9.58
2019-05-21T20:34:22.322Z,10.25
2019-05-21T20:36:53.186Z,10.82
2019-05-21T20:39:24.627Z,10.63
2019-05-21T20:41:55.135Z,11.95
2019-05-21T20:44:25.847Z,13.72
2019-05-21T20:46:57.017Z,13.72
2019-05-21T20:49:27.774Z,13.58
2019-05-21T20:52:15.853Z,14.05
2019-05-21T20:54:31.773Z,13.72
2019-05-21T20:57:01.809Z,14.53
2019-05-21T20:59:32.123Z,14.45
2019-05-21T21:02:05.046Z,15.45
2019-05-21T21:04:34.168Z,16.45
2019-05-21T21:07:05.411Z,16.10
2019-05-21T21:09:35.652Z,14.90
2019-05-21T21:12:06.505Z,12.40
2019-05-21T21:14:36.584Z,12.37
2019-05-21T21:17:06.812Z,12.90
2019-05-21T21:19:36.790Z,13.40
2019-05-21T21:22:06.919Z,14.10
2019-05-21T21:24:38.406Z,14.45
2019-05-21T21:27:08.413Z,13.90
2019-05-21T21:29:38.178Z,16.32
2019-05-21T21:32:08.441Z,15.68
2019-05-21T21:34:38.742Z,15.95
2019-05-21T21:37:09.294Z,18.55
2019-05-21T21:39:40.296Z,20.97
2019-05-21T21:42:11.351Z,21.12
2019-05-21T21:44:41.864Z,22.05
2019-05-21T21:47:11.996Z,21.30
2019-05-21T21:49:42.603Z,21.62
2019-05-21T21:52:15.263Z,23.42
2019-05-21T21:54:45.341Z,23.07
2019-05-21T21:57:15.780Z,21.97
2019-05-21T21:59:47.690Z,22.82
2019-05-21T22:02:26.950Z,21.65
2019-05-21T22:04:58.905Z,21.02
2019-05-21T22:07:29.204Z,22.30
2019-05-21T22:09:59.153Z,21.37
2019-05-21T22:12:29.697Z,22.10
2019-05-21T22:15:04.013Z,22.27
2019-05-21T22:17:34.682Z,22.85
2019-05-21T22:20:06.328Z,22.20
2019-05-21T22:22:37.124Z,22.07
2019-05-21T22:25:08.924Z,20.52
2019-05-21T22:27:38.829Z,21.40
2019-05-21T22:30:09.308Z,21.00
2019-05-21T22:32:39.372Z,21.75
2019-05-21T22:35:09.492Z,23.00
2019-05-21T22:37:39.659Z,22.40
2019-05-21T22:40:09.753Z,22.27
2019-05-21T22:42:40.589Z,22.95
2019-05-21T22:45:11.576Z,23.83
2019-05-21T22:47:41.873Z,22.32
2019-05-21T22:50:12.464Z,24.05
2019-05-21T22:52:43.941Z,23.20
2019-05-21T22:55:13.663Z,22.50
2019-05-21T22:57:44.820Z,22.30
2019-05-21T23:00:15.352Z,21.00
2019-05-21T23:02:46.118Z,20.48
2019-05-21T23:05:17.651Z,21.10
2019-05-21T23:07:48.235Z,20.15
2019-05-21T23:10:19.016Z,22.20
2019-05-21T23:12:51.593Z,21.73
2019-05-21T23:15:25.254Z,21.60
2019-05-21T23:17:53.080Z,21.93
2019-05-21T23:20:25.444Z,21.62
2019-05-21T23:22:57.724Z,20.77
2019-05-21T23:25:27.757Z,21.12
2019-05-21T23:27:57.678Z,22.22
2019-05-21T23:30:28.191Z,21.12
2019-05-21T23:32:58.634Z,22.75
2019-05-21T23:35:28.787Z,22.27
2019-05-21T23:37:58.580Z,19.62
2019-05-21T23:40:29.970Z,20.25
2019-05-21T23:43:00.764Z,20.12
2019-05-21T23:45:31.154Z,18.92
2019-05-21T23:48:01.870Z,20.52
2019-05-21T23:50:31.577Z,18.77
2019-05-21T23:53:03.303Z,19.82
2019-05-21T23:55:33.233Z,18.95
2019-05-21T23:58:04.004Z,19.65
